createdAt,value
2018-05-12T00:02:21.755Z,14.20
2018-05-12T00:04:51.088Z,14.20
2018-05-12T00:07:20.335Z,14.20
2018-05-12T00:09:49.611Z,14.10
2018-05-12T00:12:18.947Z,14.20
2018-05-12T00:14:48.448Z,14.20
2018-05-12T00:17:17.818Z,14.30
2018-05-12T00:19:47.112Z,14.30
2018-05-12T00:22:16.383Z,14.10
2018-05-12T00:24:46.440Z,14.10
2018-05-12T00:27:15.761Z,14.10
2018-05-12T00:29:45.052Z,14.30
2018-05-12T00:32:14.396Z,14.20
2018-05-12T00:34:44.464Z,14.20
2018-05-12T00:37:13.742Z,14.20
2018-05-12T00:39:43.032Z,14.20
2018-05-12T00:42:12.340Z,14.10
2018-05-12T00:44:41.996Z,14.00
2018-05-12T00:47:11.255Z,13.90
2018-05-12T00:49:40.623Z,14.00
2018-05-12T00:52:10.336Z,14.10
2018-05-12T00:54:39.604Z,14.10
2018-05-12T00:57:08.878Z,14.00
2018-05-12T00:59:38.160Z,13.90
2018-05-12T01:02:07.478Z,13.90
2018-05-12T01:04:36.735Z,13.70
2018-05-12T01:07:07.357Z,13.70
2018-05-12T01:09:36.740Z,13.70
2018-05-12T01:12:06.028Z,13.60
2018-05-12T01:14:35.708Z,13.60
2018-05-12T01:17:05.025Z,13.60
2018-05-12T01:19:34.599Z,13.70
2018-05-12T01:22:04.770Z,14.00
2018-05-12T01:24:35.756Z,14.00
2018-05-12T01:27:06.534Z,14.10
2018-05-12T01:29:35.856Z,14.10
2018-05-12T01:32:05.236Z,14.00
2018-05-12T01:34:34.555Z,13.60
2018-05-12T01:37:03.925Z,13.70
2018-05-12T01:39:33.189Z,13.70
2018-05-12T01:42:03.984Z,13.60
2018-05-12T01:44:33.292Z,13.60
2018-05-12T01:47:02.645Z,13.70
2018-05-12T01:49:32.762Z,13.70
2018-05-12T01:52:02.986Z,13.50
2018-05-12T01:54:33.040Z,13.40
2018-05-12T01:57:02.424Z,13.40
2018-05-12T01:59:31.693Z,13.40
2018-05-12T02:02:00.969Z,13.50
2018-05-12T02:04:31.984Z,13.80
2018-05-12T02:07:01.277Z,13.90
2018-05-12T02:09:30.595Z,13.90
2018-05-12T02:11:59.917Z,13.90
2018-05-12T02:14:29.767Z,13.90
2018-05-12T02:16:59.038Z,13.90
2018-05-12T02:19:28.340Z,13.70
2018-05-12T02:21:57.836Z,13.60
2018-05-12T02:24:27.132Z,13.50
2018-05-12T02:26:56.400Z,13.60
2018-05-12T02:29:26.180Z,13.60
2018-05-12T02:31:55.462Z,13.60
2018-05-12T02:34:24.954Z,13.60
2018-05-12T02:36:54.299Z,13.50
2018-05-12T02:39:24.303Z,13.50
2018-05-12T02:41:54.363Z,13.40
2018-05-12T02:44:23.784Z,13.40
2018-05-12T02:46:53.291Z,13.40
2018-05-12T02:49:22.582Z,13.30
2018-05-12T02:51:51.854Z,13.50
2018-05-12T02:54:21.133Z,13.60
2018-05-12T02:56:58.460Z,13.60
2018-05-12T02:59:29.123Z,13.60
2018-05-12T03:01:58.511Z,13.70
2018-05-12T03:04:27.734Z,13.50
2018-05-12T03:06:57.038Z,13.60
2018-05-12T03:09:26.760Z,13.50
2018-05-12T03:11:56.040Z,13.30
2018-05-12T03:14:25.319Z,13.40
2018-05-12T03:16:55.039Z,13.30
2018-05-12T03:19:24.473Z,13.40
2018-05-12T03:21:53.772Z,13.40
2018-05-12T03:24:23.255Z,13.40
2018-05-12T03:26:52.573Z,13.40
2018-05-12T03:29:22.127Z,13.40
2018-05-12T03:31:51.652Z,13.40
2018-05-12T03:34:20.926Z,13.30
2018-05-12T03:36:51.676Z,13.20
2018-05-12T03:39:21.099Z,13.30
2018-05-12T03:41:50.377Z,13.30
2018-05-12T03:44:19.687Z,13.40
2018-05-12T03:46:48.980Z,13.40
2018-05-12T03:49:18.748Z,13.50
2018-05-12T03:51:48.037Z,13.70
2018-05-12T03:54:17.315Z,13.60
2018-05-12T03:56:46.849Z,13.60
2018-05-12T03:59:16.271Z,13.60
2018-05-12T04:01:46.675Z,13.40
2018-05-12T04:04:25.292Z,13.40
2018-05-12T04:08:08.382Z,13.40
2018-05-12T04:10:40.154Z,13.50
2018-05-12T04:13:09.410Z,13.60
2018-05-12T04:15:39.622Z,13.70
2018-05-12T04:18:09.299Z,13.70
2018-05-12T04:20:38.611Z,13.50
2018-05-12T04:23:07.913Z,13.60
2018-05-12T04:25:37.652Z,13.60
2018-05-12T04:28:06.961Z,13.50
2018-05-12T04:30:36.277Z,13.70
2018-05-12T04:33:05.937Z,13.90
2018-05-12T04:35:35.452Z,14.00
2018-05-12T04:38:04.764Z,14.00
2018-05-12T04:40:34.632Z,14.10
2018-05-12T04:43:03.942Z,14.10
2018-05-12T04:45:33.733Z,14.20
2018-05-12T04:48:06.136Z,14.10
2018-05-12T04:50:35.823Z,14.20
2018-05-12T04:53:05.090Z,14.00
2018-05-12T04:55:34.832Z,14.10
2018-05-12T04:58:05.261Z,14.30
2018-05-12T05:00:34.555Z,14.30
2018-05-12T05:03:04.163Z,14.60
2018-05-12T05:05:33.547Z,15.00
2018-05-12T05:08:03.069Z,15.30
2018-05-12T05:10:32.888Z,15.30
2018-05-12T05:13:02.155Z,15.20
2018-05-12T05:15:31.481Z,15.30
2018-05-12T05:18:02.202Z,15.30
2018-05-12T05:20:31.694Z,15.60
2018-05-12T05:23:00.912Z,15.60
2018-05-12T05:25:30.494Z,15.80
2018-05-12T05:27:59.900Z,15.80
2018-05-12T05:30:29.917Z,15.70
2018-05-12T05:32:59.561Z,15.70
2018-05-12T05:35:28.831Z,15.60
2018-05-12T05:37:58.910Z,15.40
2018-05-12T05:40:29.566Z,15.40
2018-05-12T05:42:58.852Z,15.40
2018-05-12T05:45:29.978Z,15.40
2018-05-12T05:47:59.698Z,15.40
2018-05-12T05:50:42.351Z,15.50
2018-05-12T05:53:16.683Z,15.80
2018-05-12T05:55:46.441Z,16.00
2018-05-12T05:58:15.721Z,15.70
2018-05-12T06:00:45.023Z,16.00
2018-05-12T06:03:14.936Z,15.90
2018-05-12T06:05:45.205Z,15.90
2018-05-12T06:08:15.632Z,16.20
2018-05-12T06:10:45.739Z,16.20
2018-05-12T06:13:49.223Z,16.50
2018-05-12T06:16:18.587Z,16.70
2018-05-12T06:18:48.583Z,16.90
2018-05-12T06:21:19.444Z,17.00
2018-05-12T06:23:48.667Z,17.00
2018-05-12T06:26:20.850Z,18.60
2018-05-12T06:28:50.162Z,18.60
2018-05-12T06:31:19.411Z,19.80
2018-05-12T06:33:50.599Z,22.20
2018-05-12T06:36:19.809Z,23.90
2018-05-12T06:38:49.100Z,24.90
2018-05-12T06:41:18.703Z,25.40
2018-05-12T06:43:47.965Z,26.10
2018-05-12T06:46:17.284Z,25.70
2018-05-12T06:48:47.040Z,26.00
2018-05-12T06:51:16.316Z,25.50
2018-05-12T06:53:45.831Z,26.10
2018-05-12T06:56:16.223Z,27.30
2018-05-12T06:58:53.417Z,27.40
2018-05-12T07:01:22.818Z,27.30
2018-05-12T07:03:52.516Z,27.10
2018-05-12T07:06:21.891Z,27.10
2018-05-12T07:09:26.879Z,27.80
2018-05-12T07:11:57.595Z,28.50
2018-05-12T07:14:30.250Z,30.00
2018-05-12T07:16:59.943Z,30.00
2018-05-12T07:19:30.106Z,29.70
2018-05-12T07:21:59.338Z,29.60
2018-05-12T07:24:30.187Z,29.40
2018-05-12T07:27:01.068Z,30.00
2018-05-12T07:29:30.609Z,29.50
2018-05-12T07:32:00.377Z,29.20
2018-05-12T07:34:32.252Z,30.40
2018-05-12T07:37:01.665Z,30.40
2018-05-12T07:39:35.415Z,29.50
2018-05-12T07:42:05.363Z,29.00
2018-05-12T07:44:35.468Z,30.50
2018-05-12T07:47:05.087Z,30.50
2018-05-12T07:49:34.416Z,30.30
2018-05-12T07:52:03.730Z,30.30
2018-05-12T07:54:35.467Z,31.30
2018-05-12T07:57:04.753Z,31.70
2018-05-12T07:59:34.782Z,31.10
2018-05-12T08:02:04.344Z,31.10
2018-05-12T08:07:35.928Z,31.40
2018-05-12T08:10:06.887Z,32.50
2018-05-12T08:12:37.146Z,32.50
2018-05-12T08:15:06.740Z,32.20
2018-05-12T08:17:36.146Z,32.30
2018-05-12T08:20:07.820Z,31.60
2018-05-12T08:22:45.976Z,33.30
2018-05-12T08:25:40.379Z,35.80
2018-05-12T08:28:13.365Z,36.80
2018-05-12T08:30:46.893Z,37.30
2018-05-12T08:33:22.311Z,31.80
2018-05-12T08:36:02.833Z,27.30
2018-05-12T08:39:05.481Z,28.30
2018-05-12T08:41:35.787Z,30.00
2018-05-12T08:44:07.006Z,30.50
2018-05-12T08:50:11.662Z,31.10
2018-05-12T08:53:21.768Z,31.70
2018-05-12T08:55:56.319Z,29.00
2018-05-12T08:58:29.193Z,29.60
2018-05-12T09:01:02.707Z,30.80
2018-05-12T09:03:58.087Z,27.20
2018-05-12T09:06:30.162Z,27.10
2018-05-12T09:09:03.807Z,27.80
2018-05-12T09:11:34.566Z,29.20
2018-05-12T09:14:06.205Z,28.20
2018-05-12T09:16:35.728Z,28.20
2018-05-12T09:22:40.609Z,26.30
2018-05-12T09:25:14.821Z,28.30
2018-05-12T09:27:44.407Z,28.90
2018-05-12T09:30:14.174Z,29.60
2018-05-12T09:32:45.168Z,28.20
2018-05-12T09:35:19.798Z,29.30
2018-05-12T09:40:49.231Z,25.50
2018-05-12T09:43:21.478Z,25.40
2018-05-12T09:45:50.970Z,25.70
2018-05-12T09:48:22.062Z,26.10
2018-05-12T09:50:51.740Z,27.40
2018-05-12T09:53:23.094Z,27.90
2018-05-12T09:55:54.289Z,27.40
2018-05-12T09:58:26.473Z,27.80
2018-05-12T10:00:56.947Z,28.00
2018-05-12T10:06:14.467Z,26.90
2018-05-12T10:08:44.451Z,26.10
2018-05-12T10:11:14.205Z,26.50
2018-05-12T10:13:48.359Z,25.50
2018-05-12T10:19:30.758Z,24.80
2018-05-12T10:22:00.618Z,23.80
2018-05-12T10:24:30.795Z,23.40
2018-05-12T10:27:10.493Z,23.50
2018-05-12T10:29:40.795Z,23.50
2018-05-12T10:32:10.484Z,24.60
2018-05-12T10:34:41.368Z,24.20
2018-05-12T10:37:11.333Z,24.10
2018-05-12T10:39:41.991Z,24.80
2018-05-12T10:42:13.135Z,24.80
2018-05-12T10:44:42.457Z,24.70
2018-05-12T10:47:12.280Z,24.90
2018-05-12T10:49:43.801Z,24.60
2018-05-12T10:52:15.469Z,24.70
2018-05-12T10:54:45.837Z,25.30
2018-05-12T10:57:16.993Z,25.20
2018-05-12T10:59:46.555Z,26.00
2018-05-12T11:02:16.469Z,25.60
2018-05-12T11:04:45.925Z,24.40
2018-05-12T11:07:17.787Z,24.70
2018-05-12T11:09:49.991Z,24.80
2018-05-12T11:12:19.469Z,24.80
2018-05-12T11:14:48.783Z,26.00
2018-05-12T11:17:21.367Z,25.70
2018-05-12T11:19:50.751Z,25.50
2018-05-12T11:22:23.398Z,25.30
2018-05-12T11:24:56.111Z,25.20
2018-05-12T11:27:29.694Z,25.70
2018-05-12T11:29:59.846Z,24.50
2018-05-12T11:32:31.549Z,24.50
2018-05-12T11:35:04.972Z,25.30
2018-05-12T11:37:39.131Z,25.30
2018-05-12T11:40:11.846Z,26.50
2018-05-12T11:42:42.887Z,26.60
2018-05-12T11:45:43.511Z,26.20
2018-05-12T11:51:01.305Z,24.50
2018-05-12T11:53:38.197Z,23.70
2018-05-12T11:56:11.015Z,24.40
2018-05-12T11:58:41.861Z,24.50
2018-05-12T12:01:13.215Z,25.50
2018-05-12T12:03:59.168Z,25.50
2018-05-12T12:06:37.364Z,24.90
2018-05-12T12:09:49.004Z,24.80
2018-05-12T12:12:22.351Z,24.80
2018-05-12T12:17:52.452Z,24.50
2018-05-12T12:20:22.828Z,24.50
2018-05-12T12:22:59.383Z,24.70
2018-05-12T12:25:31.817Z,25.10
2018-05-12T12:28:07.942Z,25.00
2018-05-12T12:30:39.312Z,24.40
2018-05-12T12:33:08.711Z,24.50
2018-05-12T12:36:04.919Z,24.30
2018-05-12T12:38:49.029Z,24.60
2018-05-12T12:41:18.867Z,24.40
2018-05-12T12:44:21.092Z,24.50
2018-05-12T12:46:50.566Z,24.10
2018-05-12T12:50:02.225Z,24.20
2018-05-12T12:56:47.435Z,24.60
2018-05-12T12:59:37.909Z,24.80
2018-05-12T13:02:24.401Z,24.70
2018-05-12T13:04:57.705Z,24.10
2018-05-12T13:07:30.835Z,24.10
2018-05-12T13:13:41.456Z,25.10
2018-05-12T13:16:16.688Z,25.10
2018-05-12T13:18:47.694Z,24.90
2018-05-12T13:21:17.881Z,25.40
2018-05-12T13:24:18.217Z,25.80
2018-05-12T13:27:07.234Z,26.10
2018-05-12T13:29:44.699Z,25.40
2018-05-12T13:35:54.563Z,25.70
2018-05-12T13:38:28.593Z,25.40
2018-05-12T13:41:00.543Z,25.30
2018-05-12T13:43:56.075Z,25.20
2018-05-12T13:46:35.203Z,26.10
2018-05-12T13:49:11.751Z,26.20
2018-05-12T13:51:41.911Z,26.20
2018-05-12T13:54:11.275Z,25.90
2018-05-12T13:56:54.068Z,25.70
2018-05-12T13:59:26.565Z,25.70
2018-05-12T14:04:46.120Z,26.00
2018-05-12T14:07:26.467Z,25.20
2018-05-12T14:09:57.690Z,24.80
2018-05-12T14:12:30.398Z,24.90
2018-05-12T14:15:04.514Z,24.50
2018-05-12T14:18:06.153Z,25.10
2018-05-12T14:21:15.904Z,25.00
2018-05-12T14:24:13.535Z,25.20
2018-05-12T14:26:56.061Z,25.20
2018-05-12T14:29:40.536Z,25.10
2018-05-12T14:32:37.437Z,25.70
2018-05-12T14:35:07.631Z,25.70
2018-05-12T14:37:37.309Z,25.70
2018-05-12T14:40:10.428Z,25.90
2018-05-12T14:42:50.501Z,25.90
2018-05-12T14:45:31.205Z,25.50
2018-05-12T14:49:01.736Z,25.20
2018-05-12T14:51:31.743Z,25.60
2018-05-12T14:54:02.184Z,26.10
2018-05-12T14:56:37.139Z,26.30
2018-05-12T14:59:07.594Z,25.90
2018-05-12T15:01:39.298Z,25.80
2018-05-12T15:04:13.203Z,25.90
2018-05-12T15:07:08.841Z,25.90
2018-05-12T15:10:06.589Z,26.00
2018-05-12T15:12:37.574Z,25.70
2018-05-12T15:15:16.930Z,25.40
2018-05-12T15:17:47.024Z,25.40
2018-05-12T15:20:18.234Z,25.70
2018-05-12T15:22:51.458Z,25.70
2018-05-12T15:29:21.778Z,25.50
2018-05-12T15:35:19.611Z,24.70
2018-05-12T15:41:27.235Z,24.30
2018-05-12T15:44:01.253Z,23.50
2018-05-12T15:49:50.002Z,22.00
2018-05-12T15:52:19.625Z,22.00
2018-05-12T15:54:54.563Z,20.20
2018-05-12T15:57:24.710Z,19.40
2018-05-12T15:59:55.572Z,19.30
2018-05-12T16:02:27.631Z,19.30
2018-05-12T16:04:57.067Z,19.30
2018-05-12T16:07:31.519Z,18.20
2018-05-12T16:10:04.084Z,18.20
2018-05-12T16:12:37.412Z,17.60
2018-05-12T16:15:08.162Z,17.10
2018-05-12T16:17:37.957Z,16.90
2018-05-12T16:20:07.303Z,17.10
2018-05-12T16:22:36.694Z,17.30
2018-05-12T16:25:09.492Z,17.10
2018-05-12T16:27:42.594Z,16.50
2018-05-12T16:30:23.572Z,16.10
2018-05-12T16:32:57.244Z,16.10
2018-05-12T16:35:28.886Z,16.00
2018-05-12T16:37:59.522Z,16.10
2018-05-12T16:40:28.987Z,16.20
2018-05-12T16:42:59.064Z,16.80
2018-05-12T16:45:28.879Z,16.80
2018-05-12T16:48:00.805Z,16.90
2018-05-12T16:50:30.888Z,17.00
2018-05-12T16:53:00.433Z,16.90
2018-05-12T16:55:34.099Z,17.00
2018-05-12T16:58:03.781Z,17.00
2018-05-12T17:00:33.372Z,16.90
2018-05-12T17:03:05.198Z,16.80
2018-05-12T17:05:41.800Z,16.60
2018-05-12T17:08:11.594Z,16.90
2018-05-12T17:10:46.145Z,16.70
2018-05-12T17:13:15.683Z,16.80
2018-05-12T17:15:46.247Z,17.20
2018-05-12T17:18:16.210Z,17.20
2018-05-12T17:21:06.926Z,17.00
2018-05-12T17:23:38.815Z,16.50
2018-05-12T17:26:10.100Z,16.50
2018-05-12T17:28:39.421Z,16.50
2018-05-12T17:31:12.701Z,16.50
2018-05-12T17:33:43.122Z,16.50
2018-05-12T17:36:12.491Z,16.70
2018-05-12T17:38:42.833Z,16.60
2018-05-12T17:41:12.918Z,16.70
2018-05-12T17:43:42.176Z,16.50
2018-05-12T17:46:11.478Z,16.60
2018-05-12T17:48:41.242Z,16.50
2018-05-12T17:51:11.264Z,16.30
2018-05-12T17:53:41.274Z,16.20
2018-05-12T17:56:10.987Z,16.20
2018-05-12T17:58:41.380Z,16.50
2018-05-12T18:01:19.141Z,16.70
2018-05-12T18:04:13.533Z,16.80
2018-05-12T18:06:43.605Z,16.60
2018-05-12T18:09:13.281Z,16.60
2018-05-12T18:11:43.280Z,16.40
2018-05-12T18:14:52.824Z,16.40
2018-05-12T18:19:59.919Z,16.30
2018-05-12T18:22:30.041Z,16.10
2018-05-12T18:24:59.367Z,16.00
2018-05-12T18:27:28.936Z,16.10
2018-05-12T18:29:58.235Z,16.10
2018-05-12T18:32:27.545Z,16.00
2018-05-12T18:35:09.726Z,16.00
2018-05-12T18:37:39.052Z,15.90
2018-05-12T18:40:08.475Z,15.90
2018-05-12T18:42:37.776Z,16.00
2018-05-12T18:45:07.036Z,15.90
2018-05-12T18:47:36.454Z,16.10
2018-05-12T18:50:06.555Z,16.10
2018-05-12T18:52:35.890Z,16.10
2018-05-12T18:55:05.691Z,16.30
2018-05-12T18:57:34.996Z,16.50
2018-05-12T19:00:04.426Z,16.50
2018-05-12T19:02:40.360Z,16.40
2018-05-12T19:05:09.683Z,16.40
2018-05-12T19:07:39.100Z,16.30
2018-05-12T19:10:08.495Z,16.40
2018-05-12T19:12:43.499Z,16.40
2018-05-12T19:15:15.167Z,16.30
2018-05-12T19:17:45.323Z,16.10
2018-05-12T19:20:14.668Z,16.00
2018-05-12T19:22:45.654Z,16.00
2018-05-12T19:25:15.274Z,15.90
2018-05-12T19:27:53.192Z,16.10
2018-05-12T19:30:49.423Z,16.20
2018-05-12T19:33:36.894Z,16.20
2018-05-12T19:36:14.525Z,16.10
2018-05-12T19:38:44.988Z,16.10
2018-05-12T19:41:15.405Z,16.40
2018-05-12T19:43:46.740Z,16.40
2018-05-12T19:46:56.305Z,16.40
2018-05-12T19:49:28.041Z,16.30
2018-05-12T19:51:59.568Z,15.90
2018-05-12T19:54:30.931Z,15.80
2018-05-12T19:57:01.637Z,15.80
2018-05-12T19:59:33.621Z,15.80
2018-05-12T20:02:04.886Z,15.60
2018-05-12T20:04:36.788Z,15.70
2018-05-12T20:07:07.240Z,15.60
2018-05-12T20:09:37.627Z,15.60
2018-05-12T20:12:06.939Z,15.60
2018-05-12T20:14:40.454Z,15.60
2018-05-12T20:17:14.623Z,15.50
2018-05-12T20:19:44.761Z,15.60
2018-05-12T20:22:23.455Z,15.80
2018-05-12T20:25:18.529Z,15.70
2018-05-12T20:27:53.037Z,15.70
2018-05-12T20:30:28.657Z,15.60
2018-05-12T20:33:02.083Z,15.60
2018-05-12T20:35:33.209Z,15.60
2018-05-12T20:38:03.978Z,15.50
2018-05-12T20:40:33.928Z,15.70
2018-05-12T20:43:03.655Z,15.60
2018-05-12T20:45:33.579Z,15.50
2018-05-12T20:48:03.566Z,15.60
2018-05-12T20:50:34.028Z,15.50
2018-05-12T20:53:04.747Z,15.60
2018-05-12T20:55:35.418Z,15.60
2018-05-12T20:58:07.757Z,15.40
2018-05-12T21:00:37.203Z,15.40
2018-05-12T21:03:14.581Z,15.30
2018-05-12T21:05:47.472Z,15.00
2018-05-12T21:08:17.611Z,14.90
2018-05-12T21:10:48.248Z,14.90
2018-05-12T21:13:21.053Z,15.10
2018-05-12T21:16:02.994Z,15.10
2018-05-12T21:18:33.496Z,15.10
2018-05-12T21:21:04.300Z,15.10
2018-05-12T21:23:35.561Z,15.20
2018-05-12T21:26:05.341Z,15.20
2018-05-12T21:28:35.967Z,15.30
2018-05-12T21:31:06.494Z,15.60
2018-05-12T21:33:40.454Z,15.50
2018-05-12T21:36:12.541Z,15.20
2018-05-12T21:38:42.234Z,15.20
2018-05-12T21:41:11.519Z,14.90
2018-05-12T21:43:40.957Z,15.10
2018-05-12T21:46:11.197Z,15.20
2018-05-12T21:48:42.161Z,14.70
2018-05-12T21:51:11.755Z,14.70
2018-05-12T21:53:41.580Z,14.60
2018-05-12T21:56:11.802Z,14.40
2018-05-12T21:58:42.203Z,14.30
2018-05-12T22:01:13.723Z,14.40
2018-05-12T22:03:43.004Z,14.20
2018-05-12T22:06:12.422Z,14.30
2018-05-12T22:08:42.934Z,14.30
2018-05-12T22:11:12.206Z,14.40
2018-05-12T22:13:47.319Z,14.60
2018-05-12T22:16:19.158Z,14.50
2018-05-12T22:18:53.749Z,14.30
2018-05-12T22:21:24.544Z,14.30
2018-05-12T22:23:53.885Z,14.50
2018-05-12T22:26:23.241Z,14.40
2018-05-12T22:28:52.885Z,14.20
2018-05-12T22:31:22.136Z,14.30
2018-05-12T22:33:51.411Z,14.30
2018-05-12T22:36:22.098Z,14.10
2018-05-12T22:38:51.462Z,14.30
2018-05-12T22:41:22.249Z,14.40
2018-05-12T22:43:53.401Z,14.40
2018-05-12T22:46:23.466Z,14.40
2018-05-12T22:48:54.423Z,14.40
2018-05-12T22:51:25.289Z,14.70
2018-05-12T22:53:55.788Z,14.70
2018-05-12T22:56:25.077Z,14.70
2018-05-12T22:58:56.153Z,14.80
2018-05-12T23:01:27.118Z,14.40
2018-05-12T23:03:56.943Z,14.40
2018-05-12T23:06:29.479Z,14.30
2018-05-12T23:09:01.537Z,14.20
2018-05-12T23:11:31.747Z,14.20
2018-05-12T23:14:02.296Z,14.30
2018-05-12T23:23:18.527Z,14.50
2018-05-12T23:25:48.185Z,14.50
2018-05-12T23:28:18.081Z,14.50
2018-05-12T23:30:48.781Z,14.40
2018-05-12T23:33:18.642Z,14.40
2018-05-12T23:35:48.485Z,14.30
2018-05-12T23:38:18.328Z,14.30
2018-05-12T23:40:48.603Z,14.40
2018-05-12T23:43:17.978Z,14.40
2018-05-12T23:45:47.299Z,14.20
2018-05-12T23:48:16.575Z,14.40
2018-05-12T23:50:45.870Z,14.20
2018-05-12T23:53:15.498Z,14.30
2018-05-12T23:55:45.082Z,14.40
2018-05-12T23:58:15.133Z,14.60
